Time;durP1;ratioP1;P1;durP2;ratioP2;P2;SDS_P1;SDS_P2;PMS_P1;PMS_P2;Temp;Humidity;BMP_temperature;BMP_pressure;BME280_temperature;BME280_humidity;BME280_pressure;Samples;Min_cycle;Max_cycle;Signal;HPM_P1;HPM_P2
2022/08/26 00:01:42;;;;;;;12.50;5.25;;;;;;;21.01;84.63;101305.31;5222155;28;20069;-70
2022/08/26 00:04:13;;;;;;;12.00;5.88;;;;;;;20.98;84.75;101309.00;5221925;28;20037;-69
2022/08/26 00:06:45;;;;;;;12.20;5.72;;;;;;;20.95;84.76;101307.34;5221493;28;20034;-70
2022/08/26 00:09:17;;;;;;;11.90;6.13;;;;;;;20.81;84.96;101304.47;5221503;28;20032;-69
2022/08/26 00:11:48;;;;;;;10.50;7.18;;;;;;;20.85;85.15;101310.47;5220148;28;20141;-69
2022/08/26 00:14:21;;;;;;;14.13;7.00;;;;;;;20.98;84.90;101311.63;5221507;28;20522;-69
2022/08/26 00:16:52;;;;;;;12.65;7.38;;;;;;;20.89;85.47;101317.38;5220813;28;20111;-69
2022/08/26 00:19:24;;;;;;;10.07;6.77;;;;;;;20.76;85.71;101314.44;5221385;28;20034;-70
2022/08/26 00:21:55;;;;;;;12.60;6.73;;;;;;;20.73;85.06;101315.44;5221818;28;20029;-70
2022/08/26 00:24:27;;;;;;;13.57;6.53;;;;;;;20.75;85.33;101318.91;5221246;28;20030;-70
2022/08/26 00:26:58;;;;;;;15.10;6.93;;;;;;;20.80;84.92;101312.50;5221281;28;20049;-70
2022/08/26 00:29:31;;;;;;;15.17;8.30;;;;;;;20.74;85.63;101324.25;5221264;28;20034;-69
2022/08/26 00:32:03;;;;;;;15.25;7.05;;;;;;;20.71;85.87;101319.09;5221120;28;20493;-70
2022/08/26 00:34:34;;;;;;;15.70;7.55;;;;;;;20.70;85.42;101315.56;5220909;28;20034;-69
2022/08/26 00:37:06;;;;;;;11.40;7.03;;;;;;;20.67;85.79;101314.88;5220879;28;20030;-69
2022/08/26 00:39:37;;;;;;;11.68;6.68;;;;;;;20.62;85.89;101320.34;5220934;28;20030;-69
2022/08/26 00:42:09;;;;;;;14.37;7.03;;;;;;;20.67;86.07;101317.50;5220594;28;20037;-69
2022/08/26 00:44:40;;;;;;;14.37;6.53;;;;;;;20.72;85.62;101324.34;5220962;28;20426;-70
2022/08/26 00:47:23;;;;;;;19.67;8.43;;;;;;;20.55;86.06;101322.41;5220554;28;20025;-70
2022/08/26 00:49:55;;;;;;;15.00;6.72;;;;;;;20.52;86.24;101327.00;5220821;28;20285;-69
2022/08/26 00:52:27;;;;;;;;;;;;;;;20.73;83.95;101326.03;5220875;28;20077;-70
2022/08/26 00:55:04;;;;;;;15.75;6.80;;;;;;;20.47;86.55;101318.41;5220772;28;20283;-69
2022/08/26 00:57:37;;;;;;;13.43;6.30;;;;;;;20.50;86.50;101323.56;5221304;28;20107;-69
2022/08/26 01:00:14;;;;;;;13.70;6.63;;;;;;;20.47;87.15;101327.22;5221512;28;20064;-69
2022/08/26 01:02:47;;;;;;;14.07;6.28;;;;;;;20.54;87.09;101322.50;5220377;28;20065;-69
2022/08/26 01:05:19;;;;;;;11.90;5.55;;;;;;;20.54;86.99;101330.44;5220636;28;20485;-70
2022/08/26 01:07:50;;;;;;;13.13;6.00;;;;;;;20.43;87.33;101327.41;5220797;28;20030;-70
2022/08/26 01:10:26;;;;;;;13.15;6.43;;;;;;;20.50;87.05;101321.78;5220311;28;20041;-70
2022/08/26 01:13:01;;;;;;;11.88;5.95;;;;;;;20.58;86.58;101326.72;5220487;28;20471;-70
2022/08/26 01:15:36;;;;;;;13.93;6.88;;;;;;;20.46;86.82;101330.78;5220587;28;20033;-70
2022/08/26 01:18:09;;;;;;;12.75;7.22;;;;;;;20.53;86.64;101323.44;5220476;28;20117;-70
2022/08/26 01:20:49;;;;;;;11.98;6.22;;;;;;;20.54;86.22;101325.13;5220573;28;20529;-70
2022/08/26 01:23:20;;;;;;;13.60;5.75;;;;;;;20.38;87.47;101331.16;5220503;28;20115;-70
2022/08/26 01:25:58;;;;;;;11.63;5.13;;;;;;;20.37;87.13;101324.13;5220120;28;20547;-70
2022/08/26 01:28:32;;;;;;;11.13;5.57;;;;;;;20.28;87.68;101321.88;5220001;28;20268;-69
2022/08/26 01:31:08;;;;;;;11.02;4.97;;;;;;;20.39;87.42;101318.75;5220611;28;20444;-70
2022/08/26 01:33:51;;;;;;;12.40;5.00;;;;;;;20.38;87.40;101315.25;5220406;28;20120;-71
2022/08/26 01:36:23;;;;;;;11.85;5.15;;;;;;;20.49;87.17;101306.81;5220781;28;20038;-70
2022/08/26 01:38:54;;;;;;;13.93;5.63;;;;;;;20.38;87.34;101312.63;5220210;28;20156;-69
2022/08/26 01:41:26;;;;;;;9.33;4.20;;;;;;;20.31;87.64;101315.59;5220468;28;20026;-69
2022/08/26 01:43:58;;;;;;;10.57;5.07;;;;;;;20.46;87.15;101309.59;5219957;28;20406;-69
2022/08/26 01:46:31;;;;;;;13.82;4.88;;;;;;;20.35;87.05;101323.34;5219882;28;20100;-70
2022/08/26 01:49:05;;;;;;;13.85;4.72;;;;;;;20.40;86.77;101326.63;5220194;28;20034;-70
2022/08/26 01:51:38;;;;;;;8.18;4.70;;;;;;;20.37;87.33;101325.94;5220479;28;20498;-70
2022/08/26 01:54:10;;;;;;;9.55;4.25;;;;;;;20.29;87.12;101325.41;5220758;28;20109;-70
2022/08/26 01:56:42;;;;;;;12.48;4.43;;;;;;;20.41;86.87;101327.47;5219985;28;20394;-70
2022/08/26 01:59:17;;;;;;;13.40;5.30;;;;;;;20.44;86.33;101324.69;5202458;28;20038;-70
2022/08/26 02:01:49;;;;;;;11.32;4.22;;;;;;;20.34;86.43;101318.97;5220159;28;20599;-70
2022/08/26 02:04:32;;;;;;;12.75;4.55;;;;;;;20.29;87.07;101328.91;5220223;28;20486;-70
2022/08/26 02:07:06;;;;;;;11.38;4.80;;;;;;;20.36;86.06;101325.03;5202667;28;20113;-70
2022/08/26 02:09:39;;;;;;;9.30;3.83;;;;;;;20.28;86.54;101337.78;5220065;28;20091;-70
2022/08/26 02:12:13;;;;;;;12.30;4.22;;;;;;;20.30;87.09;101330.66;5219881;28;20042;-70
2022/08/26 02:14:50;;;;;;;8.25;3.58;;;;;;;20.23;87.09;101337.13;5222893;28;20049;-70
2022/08/26 02:17:27;;;;;;;7.45;3.08;;;;;;;20.18;87.27;101331.19;5224210;28;20036;-70
2022/08/26 02:19:59;;;;;;;10.65;3.35;;;;;;;20.11;87.88;101340.31;5223694;28;20402;-70
2022/08/26 02:22:31;;;;;;;10.50;3.47;;;;;;;20.17;87.18;101340.03;5223618;28;20030;-70
2022/08/26 02:25:26;;;;;;;;;;;;;;;20.33;85.30;101345.50;5223934;28;20045;-70
2022/08/26 02:27:58;;;;;;;9.32;3.10;;;;;;;20.17;86.69;101350.63;5220523;28;19999;-70
2022/08/26 02:30:32;;;;;;;14.20;3.28;;;;;;;20.11;86.68;101345.59;5223541;28;20464;-69
2022/08/26 02:33:03;;;;;;;10.75;2.75;;;;;;;20.15;86.55;101353.34;5223345;28;20372;-70
2022/08/26 02:35:36;;;;;;;8.93;3.30;;;;;;;20.14;86.10;101350.75;5205889;28;20048;-70
2022/08/26 02:38:09;;;;;;;13.65;2.97;;;;;;;20.07;86.89;101357.25;5223643;28;20038;-70
2022/08/26 02:40:42;;;;;;;12.52;3.70;;;;;;;20.10;87.17;101352.69;5222940;28;20084;-71
2022/08/26 02:43:14;;;;;;;8.82;3.60;;;;;;;20.02;86.78;101355.66;5223206;28;20486;-70
2022/08/26 02:45:46;;;;;;;8.63;2.83;;;;;;;20.07;86.50;101360.75;5223478;28;20033;-70
2022/08/26 02:48:20;;;;;;;7.55;2.78;;;;;;;19.96;87.00;101352.41;5223337;28;20117;-69
2022/08/26 02:50:51;;;;;;;11.80;3.08;;;;;;;20.02;87.64;101353.00;5222955;28;20049;-70
2022/08/26 02:53:22;;;;;;;9.97;3.03;;;;;;;19.91;87.45;101338.53;5222764;28;20490;-69
2022/08/26 02:55:54;;;;;;;7.37;2.77;;;;;;;19.94;87.46;101344.53;5223352;28;20533;-69
2022/08/26 02:58:26;;;;;;;9.67;2.80;;;;;;;19.86;87.78;101351.97;5205473;28;20034;-69
2022/08/26 03:00:57;;;;;;;9.27;2.47;;;;;;;19.93;87.07;101353.44;5223265;28;20121;-69
2022/08/26 03:03:29;;;;;;;11.07;2.67;;;;;;;19.87;87.37;101351.03;5222615;28;20282;-70
2022/08/26 03:06:00;;;;;;;10.37;3.07;;;;;;;19.80;88.35;101354.84;5222738;28;20415;-70
2022/08/26 03:08:32;;;;;;;10.57;3.27;;;;;;;19.87;87.89;101348.41;5222698;28;20116;-70
2022/08/26 03:11:03;;;;;;;9.77;3.50;;;;;;;19.85;87.84;101355.50;5222957;28;20034;-70
2022/08/26 03:13:36;;;;;;;9.38;3.70;;;;;;;19.89;87.77;101351.81;5223424;28;20042;-69
2022/08/26 03:16:07;;;;;;;7.68;3.65;;;;;;;19.86;87.64;101347.50;5222754;28;20498;-70
2022/08/26 03:18:39;;;;;;;8.03;3.27;;;;;;;19.88;87.83;101352.75;5223029;28;20037;-70
2022/08/26 03:21:16;;;;;;;12.73;3.60;;;;;;;19.84;88.19;101348.53;5222784;28;20053;-69
2022/08/26 03:23:48;;;;;;;10.77;4.28;;;;;;;19.80;88.43;101352.22;5223029;28;20378;-69
2022/08/26 03:26:19;;;;;;;9.17;3.67;;;;;;;19.87;88.22;101353.69;5221615;28;20033;-70
2022/08/26 03:31:41;;;;;;;7.72;3.90;;;;;;;19.82;88.36;101359.16;5222349;28;20041;-70
2022/08/26 03:34:12;;;;;;;9.00;4.50;;;;;;;19.78;88.98;101359.38;5221957;28;20395;-69
2022/08/26 03:36:44;;;;;;;8.98;4.15;;;;;;;19.86;88.86;101359.91;5222672;28;20426;-69
2022/08/26 03:39:16;;;;;;;10.63;3.83;;;;;;;19.83;88.53;101362.66;5222099;28;20083;-70
2022/08/26 03:41:47;;;;;;;10.93;3.53;;;;;;;19.94;88.46;101360.41;5222104;28;20034;-69
2022/08/26 03:44:18;;;;;;;8.43;3.50;;;;;;;19.81;89.08;101354.78;5222233;28;20379;-70
2022/08/26 03:46:50;;;;;;;7.57;3.47;;;;;;;19.90;88.95;101350.91;5222258;28;20033;-70
2022/08/26 03:49:21;;;;;;;8.60;3.57;;;;;;;19.84;88.96;101359.97;5222098;28;20026;-70
2022/08/26 03:51:53;;;;;;;10.27;4.23;;;;;;;19.83;89.17;101360.88;5222839;28;20065;-70
2022/08/26 03:54:25;;;;;;;11.13;3.55;;;;;;;19.85;88.88;101355.50;5221489;28;20045;-70
2022/08/26 03:56:56;;;;;;;8.52;3.67;;;;;;;19.85;89.18;101371.38;5221828;28;20095;-70
2022/08/26 03:59:28;;;;;;;7.90;3.17;;;;;;;19.82;89.34;101361.81;5221509;28;20484;-70
2022/08/26 04:01:59;;;;;;;11.30;3.20;;;;;;;19.76;89.36;101361.22;5204032;28;20041;-70
2022/08/26 04:04:30;;;;;;;12.63;3.40;;;;;;;19.68;89.08;101367.66;5221546;28;20062;-70
2022/08/26 04:07:02;;;;;;;8.57;3.20;;;;;;;19.64;89.38;101357.25;5221265;28;20128;-70
2022/08/26 04:09:34;;;;;;;7.97;2.92;;;;;;;19.62;90.06;101359.97;5222061;28;20490;-70
2022/08/26 04:12:05;;;;;;;8.20;3.77;;;;;;;19.68;89.81;101369.44;5221415;28;20113;-70
2022/08/26 04:14:37;;;;;;;8.30;3.60;;;;;;;19.59;90.06;101359.22;5221720;28;20057;-70
2022/08/26 04:17:08;;;;;;;11.57;2.77;;;;;;;19.61;89.70;101360.91;5222111;28;20022;-70
2022/08/26 04:19:40;;;;;;;12.27;3.90;;;;;;;19.71;89.25;101368.47;5221165;28;20040;-70
2022/08/26 04:22:11;;;;;;;10.07;4.07;;;;;;;19.62;90.17;101356.47;5220787;28;20029;-70
2022/08/26 04:24:43;;;;;;;10.47;3.53;;;;;;;19.64;90.00;101365.19;5220767;28;20284;-70
2022/08/26 04:27:14;;;;;;;9.23;3.37;;;;;;;19.56;90.11;101354.06;5221320;28;20037;-69
2022/08/26 04:29:46;;;;;;;9.45;3.15;;;;;;;19.57;89.88;101356.66;5221272;28;20042;-70
2022/08/26 04:32:17;;;;;;;8.57;3.30;;;;;;;19.60;90.11;101353.88;5220974;28;20053;-70
2022/08/26 04:34:49;;;;;;;10.30;3.03;;;;;;;19.65;89.86;101354.53;5220549;28;20037;-70
2022/08/26 04:37:20;;;;;;;9.80;3.67;;;;;;;19.66;89.93;101356.28;5220674;28;20034;-70
2022/08/26 04:39:52;;;;;;;12.13;4.33;;;;;;;19.58;89.50;101355.75;5220832;28;20037;-70
2022/08/26 04:42:23;;;;;;;7.37;2.90;;;;;;;19.61;89.94;101357.38;5221296;28;20037;-70
2022/08/26 04:44:54;;;;;;;9.73;3.37;;;;;;;19.59;89.94;101369.81;5221127;28;20038;-70
2022/08/26 04:47:26;;;;;;;6.67;2.67;;;;;;;19.55;90.17;101362.94;5221309;28;20057;-70
2022/08/26 04:49:57;;;;;;;8.03;2.90;;;;;;;19.53;90.08;101372.69;5220377;28;20126;-70
2022/08/26 04:52:29;;;;;;;8.87;3.30;;;;;;;19.57;90.11;101369.88;5221289;28;20037;-70
2022/08/26 04:55:00;;;;;;;9.17;3.27;;;;;;;19.50;90.98;101366.63;5220959;28;20037;-70
2022/08/26 04:57:32;;;;;;;7.70;3.00;;;;;;;19.58;89.95;101362.81;5220851;28;20049;-70
2022/08/26 05:00:07;;;;;;;12.07;3.75;;;;;;;19.48;90.96;101362.31;5220886;28;20041;-69
2022/08/26 05:02:39;;;;;;;7.82;2.85;;;;;;;19.54;90.84;101372.66;5220819;28;20034;-70
2022/08/26 05:05:12;;;;;;;;;;;;;;;19.69;88.96;101371.16;5203786;28;20034;-70
2022/08/26 05:07:44;;;;;;;8.98;3.30;;;;;;;19.49;90.01;101371.97;5221206;28;19924;-70
2022/08/26 05:10:15;;;;;;;7.33;2.70;;;;;;;19.53;90.24;101370.06;5221184;28;20038;-71
2022/08/26 05:12:46;;;;;;;13.43;3.03;;;;;;;19.51;91.00;101370.13;5221300;28;20038;-71
2022/08/26 05:15:18;;;;;;;9.97;2.73;;;;;;;19.48;90.90;101370.25;5220718;28;20030;-71
2022/08/26 05:17:49;;;;;;;5.97;2.50;;;;;;;19.42;90.42;101373.16;5220975;28;20034;-71
2022/08/26 05:20:21;;;;;;;5.43;2.22;;;;;;;19.37;90.83;101369.81;5220538;28;20033;-71
2022/08/26 05:22:53;;;;;;;10.85;2.92;;;;;;;19.40;91.25;101374.97;5220661;28;20038;-71
2022/08/26 05:25:24;;;;;;;8.80;3.03;;;;;;;19.42;90.88;101378.44;5220079;28;20041;-70
2022/08/26 05:27:56;;;;;;;12.63;3.80;;;;;;;19.30;91.53;101371.84;5220405;28;20335;-70
2022/08/26 05:30:30;;;;;;;10.90;3.10;;;;;;;19.33;91.74;101371.72;5220344;28;20042;-70
2022/08/26 05:33:02;;;;;;;6.45;2.60;;;;;;;19.41;91.91;101367.00;5220227;28;20459;-70
2022/08/26 05:35:37;;;;;;;10.15;3.10;;;;;;;19.41;91.33;101376.72;5220261;28;20093;-70
2022/08/26 05:38:11;;;;;;;8.70;2.85;;;;;;;19.49;91.51;101379.91;5220703;28;20030;-70
2022/08/26 05:40:46;;;;;;;7.28;2.85;;;;;;;19.40;91.22;101382.91;5220190;28;20104;-70
2022/08/26 05:43:19;;;;;;;9.13;2.95;;;;;;;19.46;91.99;101378.25;5220537;28;20028;-70
2022/08/26 05:45:50;;;;;;;7.07;2.53;;;;;;;19.57;90.90;101383.09;5220495;28;20049;-71
2022/08/26 05:48:22;;;;;;;7.30;2.73;;;;;;;19.58;90.43;101383.97;5221568;28;20030;-70
2022/08/26 05:50:53;;;;;;;6.03;3.05;;;;;;;19.53;90.85;101391.22;5224129;28;20140;-71
2022/08/26 05:53:25;;;;;;;6.30;2.67;;;;;;;19.58;90.66;101400.69;5206321;28;20045;-70
2022/08/26 05:55:56;;;;;;;10.20;3.47;;;;;;;19.70;91.17;101401.13;5223963;28;20096;-71
2022/08/26 05:58:29;;;;;;;7.22;2.35;;;;;;;19.76;90.51;101400.91;5224515;28;20069;-70
2022/08/26 06:01:07;;;;;;;8.83;2.47;;;;;;;19.79;89.48;101411.34;5224562;28;20041;-72
2022/08/26 06:03:41;;;;;;;10.48;3.10;;;;;;;19.72;89.74;101408.03;5223320;28;20479;-71
2022/08/26 06:06:22;;;;;;;5.72;2.00;;;;;;;19.82;90.34;101421.81;5223796;28;20200;-72
2022/08/26 06:08:54;;;;;;;6.47;2.35;;;;;;;19.75;89.86;101415.84;5224177;28;20029;-71
2022/08/26 06:11:27;;;;;;;8.00;2.92;;;;;;;19.67;89.67;101416.19;5223256;28;20038;-70
2022/08/26 06:14:01;;;;;;;8.02;2.63;;;;;;;19.64;91.50;101426.00;5223731;28;20034;-71
2022/08/26 06:16:37;;;;;;;9.98;2.50;;;;;;;19.60;90.82;101417.34;5223975;28;20046;-71
2022/08/26 06:19:10;;;;;;;6.68;2.65;;;;;;;19.65;90.60;101422.47;5223978;28;20136;-70
2022/08/26 06:21:45;;;;;;;7.60;2.03;;;;;;;19.70;90.54;101422.28;5223826;28;20320;-71
2022/08/26 06:27:12;;;;;;;8.55;2.22;;;;;;;19.77;90.00;101432.59;5223423;28;20041;-70
2022/08/26 06:29:43;;;;;;;8.18;2.67;;;;;;;19.91;89.64;101429.34;5223678;28;20064;-70
2022/08/26 06:32:16;;;;;;;7.57;2.07;;;;;;;19.93;89.30;101437.22;5223348;28;20030;-71
2022/08/26 06:34:47;;;;;;;5.45;2.08;;;;;;;19.92;88.78;101433.72;5223277;28;20391;-71
2022/08/26 06:37:19;;;;;;;11.20;2.30;;;;;;;19.90;87.96;101435.59;5222927;28;20026;-70
2022/08/26 06:39:50;;;;;;;8.53;2.00;;;;;;;19.94;88.32;101434.50;5189553;28;20033;-71
2022/08/26 06:42:21;;;;;;;7.93;2.37;;;;;;;19.93;87.93;101438.09;5205142;28;20125;-70
2022/08/26 06:44:53;;;;;;;8.03;2.53;;;;;;;19.95;88.21;101435.41;5222685;28;20478;-70
2022/08/26 06:47:24;;;;;;;9.63;2.78;;;;;;;19.90;87.67;101443.53;5222795;28;20037;-72
2022/08/26 06:49:56;;;;;;;7.67;2.13;;;;;;;19.93;88.24;101443.41;5222554;28;20030;-71
2022/08/26 06:52:28;;;;;;;9.15;2.15;;;;;;;19.96;88.69;101440.59;5204666;28;20049;-70
2022/08/26 06:54:59;;;;;;;6.37;2.20;;;;;;;19.96;88.32;101445.03;5222485;28;20118;-71
2022/08/26 06:57:31;;;;;;;11.90;2.23;;;;;;;20.01;88.95;101438.63;5222346;28;20054;-71
2022/08/26 07:00:07;;;;;;;10.20;3.20;;;;;;;20.01;88.11;101457.16;5203812;28;20360;-71
2022/08/26 07:02:39;;;;;;;9.25;2.17;;;;;;;20.07;87.85;101458.69;5222193;28;20037;-71
2022/08/26 07:05:11;;;;;;;10.27;3.40;;;;;;;20.15;87.74;101445.97;5222245;28;20030;-71
2022/08/26 07:07:42;;;;;;;9.57;2.13;;;;;;;20.19;87.66;101449.38;5222626;28;20122;-72
2022/08/26 07:10:14;;;;;;;7.83;1.90;;;;;;;20.18;86.67;101455.59;5221912;28;20030;-71
2022/08/26 07:12:47;;;;;;;10.77;2.40;;;;;;;20.23;86.90;101446.50;5221803;28;20190;-71
2022/08/26 07:15:19;;;;;;;6.38;2.03;;;;;;;20.19;86.04;101449.38;5222301;28;20037;-70
2022/08/26 07:17:51;;;;;;;5.57;2.00;;;;;;;20.18;86.32;101437.91;5222260;28;20034;-72
2022/08/26 07:20:22;;;;;;;8.13;2.43;;;;;;;20.28;86.20;101448.97;5221505;28;20033;-71
2022/08/26 07:22:54;;;;;;;7.23;2.23;;;;;;;20.33;85.23;101452.25;5221824;28;20479;-70
2022/08/26 07:25:25;;;;;;;7.00;2.23;;;;;;;20.38;84.14;101446.78;5204127;28;20081;-71
2022/08/26 07:27:56;;;;;;;8.43;2.00;;;;;;;20.46;84.64;101454.41;5221781;28;20141;-71
2022/08/26 07:30:28;;;;;;;7.40;2.03;;;;;;;20.46;84.67;101459.69;5221408;28;20026;-70
2022/08/26 07:32:59;;;;;;;5.97;1.97;;;;;;;20.47;84.43;101456.97;5221705;28;20034;-71
2022/08/26 07:35:30;;;;;;;9.43;2.50;;;;;;;20.43;83.48;101455.41;5204324;28;20069;-70
2022/08/26 07:38:02;;;;;;;6.17;1.90;;;;;;;20.52;83.24;101454.13;5222015;28;20062;-71
2022/08/26 07:40:34;;;;;;;12.63;2.45;;;;;;;20.64;82.76;101460.69;5222282;28;20026;-72
2022/08/26 07:43:08;;;;;;;6.97;2.20;;;;;;;20.83;82.62;101466.03;5204566;28;20083;-72
2022/08/26 07:45:39;;;;;;;7.07;2.00;;;;;;;20.85;82.65;101466.81;5221638;28;20261;-73
2022/08/26 07:48:11;;;;;;;6.97;2.10;;;;;;;20.98;81.43;101468.00;5221766;28;20459;-73
2022/08/26 07:50:42;;;;;;;8.17;2.10;;;;;;;21.04;80.87;101474.81;5221126;28;20050;-74
2022/08/26 07:53:14;;;;;;;8.05;2.35;;;;;;;21.10;80.44;101464.78;5221361;28;20030;-72
2022/08/26 07:55:46;;;;;;;7.83;2.43;;;;;;;21.20;81.19;101467.00;5221892;28;20034;-72
2022/08/26 07:58:18;;;;;;;8.02;1.88;;;;;;;21.13;79.41;101480.53;5221510;28;20029;-73
2022/08/26 08:00:49;;;;;;;6.78;1.85;;;;;;;21.13;79.34;101477.03;5221914;28;20025;-72
2022/08/26 08:03:21;;;;;;;5.97;2.13;;;;;;;21.17;79.61;101480.41;5221277;28;20041;-73
2022/08/26 08:05:52;;;;;;;10.70;2.63;;;;;;;21.08;78.80;101482.53;5221174;28;20061;-73
2022/08/26 08:08:24;;;;;;;6.07;2.23;;;;;;;21.13;80.19;101490.28;5221028;28;20468;-72
2022/08/26 08:10:55;;;;;;;9.47;3.03;;;;;;;21.14;79.57;101478.78;5220399;28;20034;-72
2022/08/26 08:13:28;;;;;;;12.00;3.13;;;;;;;21.17;79.99;101485.69;5221182;28;20398;-72
2022/08/26 08:15:59;;;;;;;9.63;2.30;;;;;;;21.31;80.60;101483.28;5221891;28;20053;-72
2022/08/26 08:18:30;;;;;;;8.20;2.30;;;;;;;21.47;78.92;101484.25;5221401;28;20036;-73
2022/08/26 08:21:02;;;;;;;6.70;2.00;;;;;;;21.41;77.10;101487.22;5221163;28;20026;-73
2022/08/26 08:23:34;;;;;;;8.70;2.38;;;;;;;21.49;77.87;101482.44;5221074;28;20041;-73
2022/08/26 08:26:08;;;;;;;7.65;1.88;;;;;;;21.39;77.45;101485.56;5220678;28;20041;-72
2022/08/26 08:28:39;;;;;;;6.10;1.50;;;;;;;21.46;76.67;101482.56;5220969;28;20037;-72
2022/08/26 08:31:30;;;;;;;8.27;2.53;;;;;;;21.43;77.05;101489.78;5203321;28;20025;-72
2022/08/26 08:34:02;;;;;;;7.60;2.53;;;;;;;21.41;76.34;101492.53;5220523;28;20033;-72
2022/08/26 08:36:33;;;;;;;6.90;1.57;;;;;;;21.36;76.17;101486.56;5221130;28;20121;-72
2022/08/26 08:39:05;;;;;;;7.47;2.47;;;;;;;21.58;77.68;101489.09;5220732;28;20232;-72
2022/08/26 08:41:55;;;;;;;8.37;2.57;;;;;;;21.75;77.30;101488.31;5220686;28;20475;-72
2022/08/26 08:44:26;;;;;;;6.03;2.30;;;;;;;21.72;75.23;101493.75;5220698;28;20026;-73
2022/08/26 08:47:16;;;;;;;8.00;2.43;;;;;;;21.73;74.88;101490.16;5220911;28;20075;-73
2022/08/26 08:49:48;;;;;;;6.32;2.30;;;;;;;21.66;74.66;101480.78;5220481;28;20066;-73
2022/08/26 08:52:34;;;;;;;5.97;1.90;;;;;;;21.54;76.30;101487.53;5221394;28;20049;-73
2022/08/26 08:55:06;;;;;;;7.72;2.10;;;;;;;21.51;75.32;101490.34;5221299;28;20451;-73
2022/08/26 08:58:11;;;;;;;8.60;2.22;;;;;;;21.66;75.89;101489.59;5202689;28;20038;-71
2022/08/26 09:01:00;;;;;;;4.45;1.75;;;;;;;21.54;75.48;101489.31;5211794;28;20087;-71
2022/08/26 09:03:43;;;;;;;6.13;2.10;;;;;;;21.47;75.20;101494.88;5220243;28;20036;-71
2022/08/26 09:06:19;;;;;;;8.77;2.00;;;;;;;21.40;74.47;101488.16;5220353;28;20029;-70
2022/08/26 09:08:51;;;;;;;7.35;2.13;;;;;;;21.37;74.82;101498.06;5220066;28;20026;-72
2022/08/26 09:11:22;;;;;;;5.20;2.22;;;;;;;21.33;75.45;101497.31;5202415;28;20030;-71
2022/08/26 09:13:55;;;;;;;6.07;1.97;;;;;;;21.43;75.76;101497.75;5220025;28;20046;-71
2022/08/26 09:16:36;;;;;;;9.43;2.30;;;;;;;21.60;74.34;101495.19;5219725;28;20092;-71
2022/08/26 09:19:13;;;;;;;8.02;2.70;;;;;;;21.70;73.46;101495.59;5220128;28;20022;-71
2022/08/26 09:21:53;;;;;;;9.10;1.88;;;;;;;21.87;74.07;101499.25;5220437;28;20030;-71
2022/08/26 09:24:28;;;;;;;10.48;2.15;;;;;;;21.87;72.54;101493.94;5222927;28;20374;-71
2022/08/26 09:26:59;;;;;;;10.93;2.65;;;;;;;22.02;75.70;101506.44;5224262;28;20025;-72
2022/08/26 09:29:41;;;;;;;6.30;2.33;;;;;;;22.01;73.99;101497.63;5224005;28;20478;-72
2022/08/26 09:32:24;;;;;;;8.13;2.13;;;;;;;22.02;73.36;101507.31;5224287;28;20480;-70
2022/08/26 09:35:02;;;;;;;8.35;2.08;;;;;;;21.79;70.50;101505.78;5224676;28;20049;-71
2022/08/26 09:37:35;;;;;;;8.90;2.10;;;;;;;21.56;71.03;101517.50;5207112;28;20053;-70
2022/08/26 09:40:14;;;;;;;7.88;2.13;;;;;;;21.45;72.31;101510.00;5223518;28;20026;-70
2022/08/26 09:42:46;;;;;;;6.30;1.75;;;;;;;21.43;73.00;101511.00;5224079;28;20080;-70
2022/08/26 09:45:27;;;;;;;11.80;2.47;;;;;;;21.38;73.99;101515.66;5223978;28;20034;-71
2022/08/26 09:47:59;;;;;;;8.93;2.60;;;;;;;21.32;73.32;101511.53;5223804;28;20123;-70
2022/08/26 09:50:53;;;;;;;6.78;2.58;;;;;;;21.39;73.32;101512.94;5223615;28;20092;-71
2022/08/26 09:53:29;;;;;;;8.32;2.30;;;;;;;21.34;73.39;101511.44;5224405;28;20371;-71
2022/08/26 09:56:26;;;;;;;8.75;3.00;;;;;;;21.44;72.86;101516.22;5223926;28;20116;-71
2022/08/26 09:58:59;;;;;;;9.10;2.00;;;;;;;21.45;74.27;101514.47;5223741;28;20026;-70
2022/08/26 10:01:42;;;;;;;7.53;2.20;;;;;;;21.34;73.38;101520.25;5223102;28;20038;-70
2022/08/26 10:04:19;;;;;;;;;;;;;;;21.55;72.86;101515.78;5224287;28;20034;-70
2022/08/26 10:07:03;;;;;;;8.35;2.25;;;;;;;21.42;74.67;101517.25;5223762;28;20377;-70
2022/08/26 10:09:40;;;;;;;9.88;2.40;;;;;;;21.50;73.11;101525.75;5205417;28;20022;-71
2022/08/26 10:12:18;;;;;;;8.60;1.90;;;;;;;21.60;74.52;101513.75;5224055;28;20045;-71
2022/08/26 10:14:56;;;;;;;9.75;2.30;;;;;;;21.63;74.84;101521.56;5223738;28;20379;-71
2022/08/26 10:17:34;;;;;;;10.05;2.10;;;;;;;21.54;73.19;101521.16;5223804;28;20026;-71
2022/08/26 10:20:29;;;;;;;7.70;1.83;;;;;;;21.49;73.32;101519.59;5223306;28;20156;-71
2022/08/26 10:23:11;;;;;;;8.90;1.90;;;;;;;21.48;72.01;101523.16;5223709;28;20407;-71
2022/08/26 10:25:53;;;;;;;10.50;2.70;;;;;;;21.46;73.07;101525.00;5206077;28;20036;-70
2022/08/26 10:28:43;;;;;;;8.63;2.03;;;;;;;21.62;72.02;101511.91;5206095;28;20327;-71
2022/08/26 10:31:27;;;;;;;6.07;1.95;;;;;;;21.59;71.54;101516.47;5223514;28;20494;-71
2022/08/26 10:33:59;;;;;;;5.70;1.80;;;;;;;21.62;72.07;101511.91;5223661;28;20117;-71
2022/08/26 10:36:50;;;;;;;7.10;2.13;;;;;;;21.57;72.18;101516.53;5223566;28;20112;-71
2022/08/26 10:39:31;;;;;;;7.75;2.10;;;;;;;21.59;72.53;101512.06;5222917;28;20343;-72
2022/08/26 10:42:08;;;;;;;8.95;2.13;;;;;;;21.62;72.29;101516.34;5223602;28;20026;-72
2022/08/26 10:44:42;;;;;;;10.07;2.50;;;;;;;21.57;72.17;101508.59;5205555;28;20040;-70
2022/08/26 10:47:20;;;;;;;8.82;2.20;;;;;;;21.47;71.76;101513.44;5204818;28;20046;-70
2022/08/26 10:49:52;;;;;;;6.00;1.98;;;;;;;21.42;71.57;101506.66;5222753;28;20428;-71
2022/08/26 10:52:42;;;;;;;11.68;2.85;;;;;;;21.40;72.61;101509.38;5222714;28;20049;-70
2022/08/26 10:55:32;;;;;;;5.53;1.60;;;;;;;21.38;72.21;101510.34;5222799;28;20038;-70
2022/08/26 10:58:24;;;;;;;7.97;1.65;;;;;;;21.29;72.37;101520.47;5222605;28;20026;-71
2022/08/26 11:01:42;;;;;;;8.05;2.13;;;;;;;21.29;73.09;101520.47;5222707;28;20057;-70
2022/08/26 11:04:29;;;;;;;6.05;1.70;;;;;;;21.25;74.27;101516.25;5223309;28;20549;-71
2022/08/26 11:07:32;;;;;;;10.45;2.63;;;;;;;21.20;73.87;101517.38;5222357;28;20032;-71
2022/08/26 11:10:17;;;;;;;6.15;1.92;;;;;;;21.18;73.18;101521.91;5222089;28;20030;-71
2022/08/26 11:12:57;;;;;;;11.23;3.13;;;;;;;21.10;73.58;101517.78;5222758;28;20033;-71
2022/08/26 11:15:29;;;;;;;8.90;3.13;;;;;;;21.09;74.21;101509.91;5222402;28;20030;-71
2022/08/26 11:18:09;;;;;;;6.53;1.97;;;;;;;21.08;74.01;101514.34;5204866;28;20050;-71
2022/08/26 11:20:46;;;;;;;7.63;1.70;;;;;;;21.11;73.39;101519.53;5222707;28;20032;-71
2022/08/26 11:23:23;;;;;;;7.50;2.00;;;;;;;21.17;74.37;101512.22;5222227;28;20132;-71
2022/08/26 11:25:59;;;;;;;9.85;2.90;;;;;;;21.11;74.29;101518.66;5222438;28;20034;-71
2022/08/26 11:28:48;;;;;;;8.45;2.25;;;;;;;21.21;74.55;101513.81;5222176;28;20026;-71
2022/08/26 11:31:25;;;;;;;6.50;2.00;;;;;;;21.11;73.12;101516.88;5222056;28;20052;-71
2022/08/26 11:33:58;;;;;;;7.30;2.03;;;;;;;20.99;74.51;101513.91;5222270;28;20093;-71
2022/08/26 11:36:33;;;;;;;7.82;2.40;;;;;;;21.05;74.25;101518.94;5222161;28;20117;-71
2022/08/26 11:39:14;;;;;;;5.72;2.05;;;;;;;21.11;74.64;101522.19;5221519;28;20049;-71
2022/08/26 11:41:48;;;;;;;7.68;1.95;;;;;;;21.05;73.92;101519.78;5221312;28;20069;-72
2022/08/26 11:44:23;;;;;;;6.18;2.08;;;;;;;21.06;73.74;101521.53;5221755;28;20032;-72
2022/08/26 11:46:58;;;;;;;7.22;2.15;;;;;;;21.08;74.56;101524.09;5203292;28;20037;-73
2022/08/26 11:49:31;;;;;;;6.32;2.33;;;;;;;20.97;74.86;101521.94;5204487;28;20467;-73
2022/08/26 11:52:11;;;;;;;6.68;2.00;;;;;;;20.89;74.29;101521.41;5221990;28;20053;-73
2022/08/26 11:55:05;;;;;;;6.45;1.60;;;;;;;20.92;74.20;101524.78;5221918;28;20407;-72
2022/08/26 11:57:59;;;;;;;5.85;1.80;;;;;;;20.81;74.51;101526.19;5215580;28;20403;-73
2022/08/26 12:00:45;;;;;;;6.82;2.30;;;;;;;20.66;75.60;101527.75;5222812;28;20566;-72
2022/08/26 12:03:22;;;;;;;12.60;1.95;;;;;;;20.64;75.24;101530.44;5221944;28;20490;-72
2022/08/26 12:05:54;;;;;;;6.25;1.98;;;;;;;20.61;75.09;101522.59;5221882;28;20116;-73